Flight Track Log - Related Links

Times and Time Zones

All times are in EDT time to prevent confusion due to time zone crossing. See the N27XP flight status page for this flight to view local times or setup timezone preferences in your user account.

Time Position Orientation Groundspeed Altitude Reporting Facility
EDT Latitude Longitude Course Direction KTS MPH feet Rate Location/Type
Sun 05:24:15 PM 40.8667 -74.3333 339° North 202 232 7,600  Level New York TRACON
Sun 05:25:15 PM 40.8500 -74.4000 252° West 217 250 11,200 3,200 Climbing New York TRACON
Sun 05:26:15 PM 40.8167 -74.4833 242° Southwest 258 297 14,000 3,000 Climbing New York TRACON
Sun 05:27:21 PM 40.7778 -74.5636 237° Southwest 254 292 17,500 2,784 Climbing New York Center
Sun 05:28:00 PM 40.5403 -75.0312 229° Southwest  Level FlightAware Approximate
Sun 05:28:20 PM 40.7419 -74.6383 238° Southwest 261 300 19,800  Level New York Center
Sun 05:29:19 PM 40.6833 -74.7089 222° Southwest 278 320 23,100 2,650 Climbing New York Center
Sun 05:30:20 PM 40.6228 -74.7819 222° Southwest 288 331 25,100 2,200 Climbing New York Center
Sun 05:31:19 PM 40.5636 -74.8633 226° Southwest 303 349 27,500 2,182 Climbing New York Center
Sun 05:32:21 PM 40.5022 -74.9469 226° Southwest 313 360 29,500 2,016 Climbing New York Center
Sun 05:33:21 PM 40.4431 -75.0333 228° Southwest 325 374 31,600 2,085 Climbing New York Center
Sun 05:34:19 PM 40.3814 -75.1194 227° Southwest 330 380 33,600 1,815 Climbing New York Center
Sun 05:35:20 PM 40.3219 -75.2056 228° Southwest 330 380 35,200 1,180 Climbing New York Center
Sun 05:36:21 PM 40.2603 -75.2914 227° Southwest 330 380 36,000 393 Climbing New York Center
Sun 05:37:22 PM 40.1942 -75.3878 228° Southwest 341 392 36,000  Level New York Center
Sun 05:38:19 PM 40.1214 -75.4858 226° Southwest 362 417 36,000  Level New York Center
Sun 05:39:19 PM 40.0461 -75.5919 227° Southwest 389 448 36,000  Level New York Center
Sun 05:40:21 PM 39.9689 -75.7006 227° Southwest 402 463 36,000  Level New York Center
Sun 05:41:20 PM 39.8914 -75.8061 226° Southwest 407 468 36,000  Level New York Center
Sun 05:42:20 PM 39.8094 -75.9164 226° Southwest 412 474 36,000  Level New York Center
Sun 05:43:21 PM 39.7339 -76.0214 227° Southwest 417 480 36,000  Level New York Center
Sun 05:44:20 PM 39.6561 -76.1261 226° Southwest 412 474 36,000  Level New York Center
Sun 05:45:18 PM 39.5836 -76.2219 226° Southwest 405 466 36,000  Level Washington Center
Sun 05:46:21 PM 39.5053 -76.3264 226° Southwest 405 466 36,000  Level Washington Center
Sun 05:47:22 PM 39.4308 -76.4328 228° Southwest 403 464 36,000  Level Washington Center
Sun 05:48:23 PM 39.3550 -76.5567 232° Southwest 401 461 36,000  Level Washington Center
Sun 05:49:27 PM 39.2842 -76.6681 231° Southwest 399 459 36,000  Level Washington Center
Sun 05:50:28 PM 39.1983 -76.8003 230° Southwest 400 460 36,000  Level Washington Center
Sun 05:51:31 PM 39.1269 -76.9111 230° Southwest 400 460 36,000  Level Washington Center
Sun 05:52:32 PM 39.0547 -77.0214 230° Southwest 400 460 36,000  Level Washington Center
Sun 05:53:35 PM 38.9700 -77.1192 222° Southwest 405 466 36,000 -384 Level Washington Center
Sun 05:54:37 PM 38.8817 -77.2156 220° Southwest 411 473 35,200 -864 Descending Washington Center
Sun 05:55:40 PM 38.7933 -77.3111 220° Southwest 412 474 34,200 -1,016 Descending Washington Center
Sun 05:56:41 PM 38.7042 -77.4083 220° Southwest 413 475 33,100 -1,082 Descending Washington Center
Sun 05:57:42 PM 38.6139 -77.5067 220° Southwest 417 480 32,000 -532 Descending Washington Center
Sun 05:58:45 PM 38.5050 -77.6247 220° Southwest 419 482 32,000  Level Washington Center
Sun 05:59:47 PM 38.4153 -77.7225 221° Southwest 420 483 32,000  Level Washington Center
Sun 06:00:50 PM 38.3247 -77.8192 220° Southwest 420 483 32,000  Level Washington Center
Sun 06:01:51 PM 38.2392 -77.9217 223° Southwest 420 483 32,000  Level Washington Center
Sun 06:02:54 PM 38.1625 -78.0328 229° Southwest 420 483 32,000  Level Washington Center
Sun 06:03:57 PM 38.0858 -78.1453 229° Southwest 419 482 32,000 -144 Level Washington Center
Sun 06:04:59 PM 38.0056 -78.2625 229° Southwest 419 482 31,700 -787 Descending Washington Center
Sun 06:05:59 PM 37.9142 -78.3947 229° Southwest 423 487 30,400 -1,328 Descending Washington Center
Sun 06:07:01 PM 37.8419 -78.5050 230° Southwest 422 486 29,000 -1,134 Descending Washington Center
Sun 06:08:06 PM 37.7439 -78.5833 212° Southwest 431 496 28,000 -476 Descending Washington Center
Sun 06:09:07 PM 37.6336 -78.6272 197° South 425 489 28,000  Level Washington Center
Sun 06:10:08 PM 37.5006 -78.6767 196° South 425 489 28,000 -432 Level Washington Center
Sun 06:11:12 PM 37.3808 -78.6947 187° South 442 509 27,100 -912 Descending Washington Center
Sun 06:12:13 PM 37.2558 -78.7092 185° South 460 529 26,100 -1,082 Descending Washington Center
Sun 06:13:14 PM 37.1131 -78.7458 192° South 449 517 24,900 -1,152 Descending Washington Center
Sun 06:14:18 PM 36.9919 -78.7647 187° South 449 517 23,700 -1,344 Descending Washington Center
Sun 06:15:19 PM 36.8722 -78.7850 188° South 448 516 22,100 -823 Descending Washington Center
Sun 06:16:22 PM 36.7622 -78.8017 187° South 419 482 22,000 -194 Descending Washington Center
Sun 06:17:23 PM 36.6425 -78.8164 186° South 417 480 21,700 -1,548 Descending Washington Center
Sun 06:18:26 PM 36.4978 -78.8394 187° South 433 498 18,800 -2,468 Descending Washington Center
Sun 06:19:27 PM 36.3803 -78.8639 190° South 417 480 16,600 -1,920 Descending Washington Center
Sun 06:20:31 PM 36.2731 -78.8844 189° South 392 451 14,800 -1,800 Descending Washington Center
Sun 06:21:07 PM 36.2103 -78.8997 191° South 377 434 13,600 -1,875 Descending Washington Center
Sun 06:21:19 PM 36.1886 -78.9097 200° South 367 422 13,300 -1,250 Descending Washington Center
Sun 06:21:31 PM 36.1686 -78.9192 201° Southwest 360 414 13,100 -300 Descending Washington Center
Sun 06:22:19 PM 36.0986 -78.9547 202° Southwest 345 397 13,000 -94 Descending Washington Center
Sun 06:22:35 PM 36.0911 -78.9586 203° Southwest 344 396 13,000 -3,677 Level Washington Center
Sun 06:23:21 PM 36.0075 -78.9892 196° South 340 391 9,200 -4,328 Descending Washington Center
Sun 06:23:36 PM 35.9822 -79.0019 202° Southwest 344 396 8,600 -2,385 Descending Washington Center
Sun 06:24:39 PM 35.9111 -79.0481 208° Southwest 310 357 6,100 -2,177 Descending Washington Center
Sun 06:25:40 PM 35.8403 -79.0831 202° Southwest 281 323 4,100 -1,065 Descending Washington Center
Sun 06:26:43 PM 35.7656 -79.1061 194° South 266 306 3,900 -48 Descending Washington Center
Sun 06:27:44 PM 35.6894 -79.1403 200° South 272 313 4,000  Climbing Washington Center
Sun 06:28:47 PM 35.6247 -79.1744 203° Southwest 257 296 3,900  Descending Washington Center
Sun 06:29:48 PM 35.5522 -79.1978 195° South 258 297 4,000  Climbing Washington Center
Sun 06:30:52 PM 35.4814 -79.2325 202° Southwest 258 297 3,900 -384 Descending Washington Center
Sun 06:31:53 PM 35.4172 -79.2572 197° South 244 281 3,200 -689 Descending Washington Center
Sun 06:33:00 PM 35.3227 -79.3343 198° South  Level FlightAware Approximate
Sun 06:40:00 PM 35.2333 -79.3833 209° Southwest  Level FlightAware Approximate

Login

Don't have an account? Register now (free) for customized features, flight alerts, and more!